sensor_id;sensor_type;location;lat;lon;timestamp;temperature;humidity
21318;DHT22;10818;50.830;6.524;2023-06-22T00:04:02;23.80;99.90
21318;DHT22;10818;50.830;6.524;2023-06-22T00:09:02;23.80;99.90
21318;DHT22;10818;50.830;6.524;2023-06-22T00:14:03;23.90;99.90
21318;DHT22;10818;50.830;6.524;2023-06-22T00:19:04;23.90;99.90
21318;DHT22;10818;50.830;6.524;2023-06-22T00:24:05;23.90;99.90
21318;DHT22;10818;50.830;6.524;2023-06-22T00:29:06;23.90;99.90
21318;DHT22;10818;50.830;6.524;2023-06-22T00:34:07;23.90;99.90
21318;DHT22;10818;50.830;6.524;2023-06-22T00:39:09;23.90;99.90
21318;DHT22;10818;50.830;6.524;2023-06-22T00:44:10;23.90;99.90
21318;DHT22;10818;50.830;6.524;2023-06-22T00:49:10;23.90;99.90
21318;DHT22;10818;50.830;6.524;2023-06-22T00:54:11;23.80;99.90
21318;DHT22;10818;50.830;6.524;2023-06-22T00:59:13;23.60;99.90
21318;DHT22;10818;50.830;6.524;2023-06-22T01:04:17;23.70;99.90
21318;DHT22;10818;50.830;6.524;2023-06-22T01:09:20;23.70;99.90
21318;DHT22;10818;50.830;6.524;2023-06-22T01:14:35;23.70;99.90
21318;DHT22;10818;50.830;6.524;2023-06-22T01:24:41;23.50;99.90
21318;DHT22;10818;50.830;6.524;2023-06-22T01:29:45;23.40;99.90
21318;DHT22;10818;50.830;6.524;2023-06-22T01:34:46;23.50;99.90
21318;DHT22;10818;50.830;6.524;2023-06-22T01:39:47;23.40;99.90
21318;DHT22;10818;50.830;6.524;2023-06-22T01:44:48;23.30;99.90
21318;DHT22;10818;50.830;6.524;2023-06-22T01:49:48;23.30;99.90
21318;DHT22;10818;50.830;6.524;2023-06-22T01:54:51;23.10;99.90
21318;DHT22;10818;50.830;6.524;2023-06-22T01:59:54;23.20;99.90
21318;DHT22;10818;50.830;6.524;2023-06-22T02:05:07;23.20;99.90
21318;DHT22;10818;50.830;6.524;2023-06-22T02:10:10;23.10;99.90
21318;DHT22;10818;50.830;6.524;2023-06-22T02:15:12;23.20;99.90
21318;DHT22;10818;50.830;6.524;2023-06-22T02:20:13;23.10;99.90
21318;DHT22;10818;50.830;6.524;2023-06-22T02:25:14;23.10;99.90
21318;DHT22;10818;50.830;6.524;2023-06-22T02:30:15;23.20;99.90
21318;DHT22;10818;50.830;6.524;2023-06-22T02:35:16;23.10;99.90
21318;DHT22;10818;50.830;6.524;2023-06-22T02:40:16;23.00;99.90
21318;DHT22;10818;50.830;6.524;2023-06-22T02:45:17;23.00;99.90
21318;DHT22;10818;50.830;6.524;2023-06-22T02:50:17;22.90;99.90
21318;DHT22;10818;50.830;6.524;2023-06-22T02:55:18;22.90;99.90
21318;DHT22;10818;50.830;6.524;2023-06-22T03:00:19;22.80;99.90
21318;DHT22;10818;50.830;6.524;2023-06-22T03:05:19;22.80;99.90
21318;DHT22;10818;50.830;6.524;2023-06-22T03:10:20;22.80;99.90
21318;DHT22;10818;50.830;6.524;2023-06-22T03:15:20;22.70;99.90
21318;DHT22;10818;50.830;6.524;2023-06-22T03:20:21;22.80;99.90
21318;DHT22;10818;50.830;6.524;2023-06-22T03:25:21;22.70;99.90
21318;DHT22;10818;50.830;6.524;2023-06-22T03:30:22;22.70;99.90
21318;DHT22;10818;50.830;6.524;2023-06-22T03:35:22;22.60;99.90
21318;DHT22;10818;50.830;6.524;2023-06-22T03:40:23;22.50;99.90
21318;DHT22;10818;50.830;6.524;2023-06-22T03:45:23;22.60;99.90
21318;DHT22;10818;50.830;6.524;2023-06-22T03:50:24;22.50;99.90
21318;DHT22;10818;50.830;6.524;2023-06-22T03:55:24;22.60;99.90
21318;DHT22;10818;50.830;6.524;2023-06-22T04:00:25;22.50;99.90
21318;DHT22;10818;50.830;6.524;2023-06-22T04:05:25;22.60;99.90
21318;DHT22;10818;50.830;6.524;2023-06-22T04:10:26;22.70;99.90
21318;DHT22;10818;50.830;6.524;2023-06-22T04:15:26;22.70;99.90
21318;DHT22;10818;50.830;6.524;2023-06-22T04:20:26;22.70;99.90
21318;DHT22;10818;50.830;6.524;2023-06-22T04:25:27;22.70;99.90
21318;DHT22;10818;50.830;6.524;2023-06-22T04:30:27;22.70;99.90
21318;DHT22;10818;50.830;6.524;2023-06-22T04:35:29;22.70;99.90
21318;DHT22;10818;50.830;6.524;2023-06-22T04:40:29;22.70;99.90
21318;DHT22;10818;50.830;6.524;2023-06-22T04:45:30;22.90;99.90
21318;DHT22;10818;50.830;6.524;2023-06-22T04:50:30;23.10;99.90
21318;DHT22;10818;50.830;6.524;2023-06-22T04:55:34;23.10;99.90
21318;DHT22;10818;50.830;6.524;2023-06-22T05:00:34;23.10;99.90
21318;DHT22;10818;50.830;6.524;2023-06-22T05:05:36;23.10;99.90
21318;DHT22;10818;50.830;6.524;2023-06-22T05:10:37;23.20;99.90
21318;DHT22;10818;50.830;6.524;2023-06-22T05:15:37;23.30;99.90
21318;DHT22;10818;50.830;6.524;2023-06-22T05:20:40;23.20;99.90
21318;DHT22;10818;50.830;6.524;2023-06-22T05:25:40;23.20;99.90
21318;DHT22;10818;50.830;6.524;2023-06-22T05:30:41;23.40;99.90
21318;DHT22;10818;50.830;6.524;2023-06-22T05:35:41;23.40;99.90
21318;DHT22;10818;50.830;6.524;2023-06-22T05:40:42;23.40;99.90
21318;DHT22;10818;50.830;6.524;2023-06-22T05:45:42;23.40;99.90
21318;DHT22;10818;50.830;6.524;2023-06-22T05:50:43;23.80;99.90
21318;DHT22;10818;50.830;6.524;2023-06-22T05:55:43;24.40;99.90
21318;DHT22;10818;50.830;6.524;2023-06-22T06:00:44;25.40;99.90
21318;DHT22;10818;50.830;6.524;2023-06-22T06:05:44;26.90;99.90
21318;DHT22;10818;50.830;6.524;2023-06-22T06:10:45;26.90;99.90
21318;DHT22;10818;50.830;6.524;2023-06-22T06:15:46;26.60;99.90
21318;DHT22;10818;50.830;6.524;2023-06-22T06:20:47;26.40;99.90
21318;DHT22;10818;50.830;6.524;2023-06-22T06:25:48;26.40;99.90
21318;DHT22;10818;50.830;6.524;2023-06-22T06:30:48;26.60;99.90
21318;DHT22;10818;50.830;6.524;2023-06-22T06:35:49;26.80;99.90
21318;DHT22;10818;50.830;6.524;2023-06-22T06:40:49;27.10;99.90
21318;DHT22;10818;50.830;6.524;2023-06-22T06:45:50;28.20;99.90
21318;DHT22;10818;50.830;6.524;2023-06-22T06:50:50;29.10;99.90
21318;DHT22;10818;50.830;6.524;2023-06-22T06:55:51;29.20;99.90
21318;DHT22;10818;50.830;6.524;2023-06-22T07:00:51;29.40;99.90
21318;DHT22;10818;50.830;6.524;2023-06-22T07:05:51;29.60;99.90
21318;DHT22;10818;50.830;6.524;2023-06-22T07:10:52;32.80;96.30
21318;DHT22;10818;50.830;6.524;2023-06-22T07:15:53;37.10;83.40
21318;DHT22;10818;50.830;6.524;2023-06-22T07:20:53;39.40;73.80
21318;DHT22;10818;50.830;6.524;2023-06-22T07:25:54;40.00;68.80
21318;DHT22;10818;50.830;6.524;2023-06-22T07:30:54;41.00;66.70
21318;DHT22;10818;50.830;6.524;2023-06-22T07:35:55;38.00;69.50
21318;DHT22;10818;50.830;6.524;2023-06-22T07:40:55;41.50;64.30
21318;DHT22;10818;50.830;6.524;2023-06-22T07:45:56;44.80;55.10
21318;DHT22;10818;50.830;6.524;2023-06-22T07:50:56;45.50;53.10
21318;DHT22;10818;50.830;6.524;2023-06-22T07:55:57;44.10;52.50
21318;DHT22;10818;50.830;6.524;2023-06-22T08:00:57;45.00;52.10
21318;DHT22;10818;50.830;6.524;2023-06-22T08:05:58;45.80;50.90
21318;DHT22;10818;50.830;6.524;2023-06-22T08:10:58;42.00;54.00
21318;DHT22;10818;50.830;6.524;2023-06-22T08:15:59;40.50;56.10
21318;DHT22;10818;50.830;6.524;2023-06-22T08:20:59;40.40;57.40
21318;DHT22;10818;50.830;6.524;2023-06-22T08:26:00;38.20;59.30
21318;DHT22;10818;50.830;6.524;2023-06-22T08:31:01;36.40;64.20
21318;DHT22;10818;50.830;6.524;2023-06-22T08:36:02;34.20;70.20
21318;DHT22;10818;50.830;6.524;2023-06-22T08:41:02;34.90;70.40
21318;DHT22;10818;50.830;6.524;2023-06-22T08:46:03;35.20;68.80
21318;DHT22;10818;50.830;6.524;2023-06-22T08:51:04;33.70;73.20
21318;DHT22;10818;50.830;6.524;2023-06-22T08:56:04;33.50;75.60
21318;DHT22;10818;50.830;6.524;2023-06-22T09:01:05;33.30;76.00
21318;DHT22;10818;50.830;6.524;2023-06-22T09:06:05;33.50;77.30
21318;DHT22;10818;50.830;6.524;2023-06-22T09:11:06;33.00;80.60
21318;DHT22;10818;50.830;6.524;2023-06-22T09:16:06;33.40;81.80
21318;DHT22;10818;50.830;6.524;2023-06-22T09:21:07;33.40;81.50
21318;DHT22;10818;50.830;6.524;2023-06-22T09:26:07;32.60;84.20
21318;DHT22;10818;50.830;6.524;2023-06-22T09:31:08;33.20;84.10
21318;DHT22;10818;50.830;6.524;2023-06-22T09:36:09;33.30;82.90
21318;DHT22;10818;50.830;6.524;2023-06-22T09:41:12;32.60;85.20
21318;DHT22;10818;50.830;6.524;2023-06-22T09:46:20;32.50;86.10
21318;DHT22;10818;50.830;6.524;2023-06-22T09:51:22;31.40;89.40
21318;DHT22;10818;50.830;6.524;2023-06-22T09:56:23;30.80;91.20
21318;DHT22;10818;50.830;6.524;2023-06-22T10:01:24;30.40;92.60
21318;DHT22;10818;50.830;6.524;2023-06-22T10:06:25;29.70;97.40
21318;DHT22;10818;50.830;6.524;2023-06-22T10:11:25;29.00;99.90
21318;DHT22;10818;50.830;6.524;2023-06-22T10:16:32;28.80;99.90
21318;DHT22;10818;50.830;6.524;2023-06-22T10:21:33;28.50;99.90
21318;DHT22;10818;50.830;6.524;2023-06-22T10:26:34;28.10;99.90
21318;DHT22;10818;50.830;6.524;2023-06-22T10:31:35;28.00;99.90
21318;DHT22;10818;50.830;6.524;2023-06-22T10:36:36;27.70;99.90
21318;DHT22;10818;50.830;6.524;2023-06-22T10:41:36;27.20;99.90
21318;DHT22;10818;50.830;6.524;2023-06-22T10:46:36;27.00;99.90
21318;DHT22;10818;50.830;6.524;2023-06-22T10:51:37;26.80;99.90
21318;DHT22;10818;50.830;6.524;2023-06-22T10:56:37;26.60;99.90
21318;DHT22;10818;50.830;6.524;2023-06-22T11:01:38;26.50;99.90
21318;DHT22;10818;50.830;6.524;2023-06-22T11:06:38;26.40;99.90
21318;DHT22;10818;50.830;6.524;2023-06-22T11:11:39;25.80;99.90
21318;DHT22;10818;50.830;6.524;2023-06-22T11:16:39;25.10;99.90
21318;DHT22;10818;50.830;6.524;2023-06-22T11:21:40;25.30;99.90
21318;DHT22;10818;50.830;6.524;2023-06-22T11:26:40;26.30;99.90
21318;DHT22;10818;50.830;6.524;2023-06-22T11:31:41;26.90;99.90
21318;DHT22;10818;50.830;6.524;2023-06-22T11:36:43;27.10;99.90
21318;DHT22;10818;50.830;6.524;2023-06-22T11:41:44;27.60;99.90
21318;DHT22;10818;50.830;6.524;2023-06-22T11:46:44;27.50;99.90
21318;DHT22;10818;50.830;6.524;2023-06-22T11:51:45;27.30;99.90
21318;DHT22;10818;50.830;6.524;2023-06-22T11:56:45;27.10;99.90
21318;DHT22;10818;50.830;6.524;2023-06-22T12:01:46;27.30;99.90
21318;DHT22;10818;50.830;6.524;2023-06-22T12:06:46;27.60;99.90
21318;DHT22;10818;50.830;6.524;2023-06-22T12:11:47;27.60;99.90
21318;DHT22;10818;50.830;6.524;2023-06-22T12:16:47;28.20;99.90
21318;DHT22;10818;50.830;6.524;2023-06-22T12:21:48;27.90;99.90
21318;DHT22;10818;50.830;6.524;2023-06-22T12:26:48;27.50;99.90
21318;DHT22;10818;50.830;6.524;2023-06-22T12:31:49;27.00;99.90
21318;DHT22;10818;50.830;6.524;2023-06-22T12:36:49;27.20;99.90
21318;DHT22;10818;50.830;6.524;2023-06-22T12:41:50;27.30;99.90
21318;DHT22;10818;50.830;6.524;2023-06-22T12:46:50;28.00;99.90
21318;DHT22;10818;50.830;6.524;2023-06-22T12:51:51;28.60;99.90
21318;DHT22;10818;50.830;6.524;2023-06-22T12:56:51;28.70;99.90
21318;DHT22;10818;50.830;6.524;2023-06-22T13:01:51;28.30;99.90
21318;DHT22;10818;50.830;6.524;2023-06-22T13:06:52;27.90;99.90
21318;DHT22;10818;50.830;6.524;2023-06-22T13:11:52;28.20;99.90
21318;DHT22;10818;50.830;6.524;2023-06-22T13:16:53;28.00;99.90
21318;DHT22;10818;50.830;6.524;2023-06-22T13:21:53;27.70;99.90
21318;DHT22;10818;50.830;6.524;2023-06-22T13:26:54;27.10;99.90
21318;DHT22;10818;50.830;6.524;2023-06-22T13:31:55;27.00;99.90
21318;DHT22;10818;50.830;6.524;2023-06-22T13:36:57;26.70;99.90
21318;DHT22;10818;50.830;6.524;2023-06-22T13:41:57;27.20;99.90
21318;DHT22;10818;50.830;6.524;2023-06-22T13:46:58;27.40;99.90
21318;DHT22;10818;50.830;6.524;2023-06-22T13:51:59;27.50;99.90
21318;DHT22;10818;50.830;6.524;2023-06-22T13:56:59;27.50;99.90
21318;DHT22;10818;50.830;6.524;2023-06-22T14:02:00;26.90;99.90
21318;DHT22;10818;50.830;6.524;2023-06-22T14:07:00;26.70;99.90
21318;DHT22;10818;50.830;6.524;2023-06-22T14:12:04;26.90;99.90
21318;DHT22;10818;50.830;6.524;2023-06-22T14:17:07;27.40;99.90
21318;DHT22;10818;50.830;6.524;2023-06-22T14:22:08;27.30;99.90
21318;DHT22;10818;50.830;6.524;2023-06-22T14:27:08;27.00;99.90
21318;DHT22;10818;50.830;6.524;2023-06-22T14:32:09;26.90;99.90
21318;DHT22;10818;50.830;6.524;2023-06-22T14:37:10;26.70;99.90
21318;DHT22;10818;50.830;6.524;2023-06-22T14:42:10;26.50;99.90
21318;DHT22;10818;50.830;6.524;2023-06-22T14:47:11;26.50;99.90
21318;DHT22;10818;50.830;6.524;2023-06-22T14:52:11;26.70;99.90
21318;DHT22;10818;50.830;6.524;2023-06-22T14:57:12;26.80;99.90
21318;DHT22;10818;50.830;6.524;2023-06-22T15:02:12;26.40;99.90
21318;DHT22;10818;50.830;6.524;2023-06-22T15:07:13;25.90;99.90
21318;DHT22;10818;50.830;6.524;2023-06-22T15:12:13;25.80;99.90
21318;DHT22;10818;50.830;6.524;2023-06-22T15:17:14;25.30;99.90
21318;DHT22;10818;50.830;6.524;2023-06-22T15:22:15;24.90;99.90
21318;DHT22;10818;50.830;6.524;2023-06-22T15:27:18;24.20;99.90
21318;DHT22;10818;50.830;6.524;2023-06-22T15:32:19;24.00;99.90
21318;DHT22;10818;50.830;6.524;2023-06-22T15:37:19;23.60;99.90
21318;DHT22;10818;50.830;6.524;2023-06-22T15:42:20;23.30;99.90
21318;DHT22;10818;50.830;6.524;2023-06-22T15:47:20;22.90;99.90
21318;DHT22;10818;50.830;6.524;2023-06-22T15:52:22;23.10;99.90
21318;DHT22;10818;50.830;6.524;2023-06-22T15:57:23;22.80;99.90
21318;DHT22;10818;50.830;6.524;2023-06-22T16:02:26;23.00;99.90
21318;DHT22;10818;50.830;6.524;2023-06-22T16:07:28;23.10;99.90
21318;DHT22;10818;50.830;6.524;2023-06-22T16:12:28;23.30;99.90
21318;DHT22;10818;50.830;6.524;2023-06-22T16:17:29;23.60;99.90
21318;DHT22;10818;50.830;6.524;2023-06-22T16:22:30;23.90;99.90
21318;DHT22;10818;50.830;6.524;2023-06-22T16:27:30;24.20;99.90
21318;DHT22;10818;50.830;6.524;2023-06-22T16:32:32;24.00;99.90
21318;DHT22;10818;50.830;6.524;2023-06-22T16:37:32;24.10;99.90
21318;DHT22;10818;50.830;6.524;2023-06-22T16:42:33;24.30;99.90
21318;DHT22;10818;50.830;6.524;2023-06-22T16:47:34;24.30;99.90
21318;DHT22;10818;50.830;6.524;2023-06-22T16:52:35;24.30;99.90
21318;DHT22;10818;50.830;6.524;2023-06-22T16:57:37;24.20;99.90
21318;DHT22;10818;50.830;6.524;2023-06-22T17:02:46;24.30;99.90
21318;DHT22;10818;50.830;6.524;2023-06-22T17:07:57;24.30;99.90
21318;DHT22;10818;50.830;6.524;2023-06-22T17:12:58;24.20;99.90
21318;DHT22;10818;50.830;6.524;2023-06-22T17:17:58;24.00;99.90
21318;DHT22;10818;50.830;6.524;2023-06-22T17:22:59;23.40;99.90
21318;DHT22;10818;50.830;6.524;2023-06-22T17:28:03;23.40;99.90
21318;DHT22;10818;50.830;6.524;2023-06-22T17:33:08;23.00;99.90
21318;DHT22;10818;50.830;6.524;2023-06-22T17:38:08;23.00;99.90
21318;DHT22;10818;50.830;6.524;2023-06-22T17:43:09;22.90;99.90
21318;DHT22;10818;50.830;6.524;2023-06-22T17:48:09;22.50;99.90
21318;DHT22;10818;50.830;6.524;2023-06-22T17:53:10;22.10;99.90
21318;DHT22;10818;50.830;6.524;2023-06-22T17:58:11;22.00;99.90
21318;DHT22;10818;50.830;6.524;2023-06-22T18:03:12;22.10;99.90
21318;DHT22;10818;50.830;6.524;2023-06-22T18:08:13;22.00;99.90
21318;DHT22;10818;50.830;6.524;2023-06-22T18:13:13;21.80;99.90
21318;DHT22;10818;50.830;6.524;2023-06-22T18:18:15;21.50;99.90
21318;DHT22;10818;50.830;6.524;2023-06-22T18:23:15;21.30;99.90
21318;DHT22;10818;50.830;6.524;2023-06-22T18:28:16;21.00;99.90
21318;DHT22;10818;50.830;6.524;2023-06-22T18:33:18;20.90;99.90
21318;DHT22;10818;50.830;6.524;2023-06-22T18:38:19;20.70;99.90
21318;DHT22;10818;50.830;6.524;2023-06-22T18:43:20;20.40;99.90
21318;DHT22;10818;50.830;6.524;2023-06-22T18:48:24;20.20;99.90
21318;DHT22;10818;50.830;6.524;2023-06-22T18:53:26;20.00;99.90
21318;DHT22;10818;50.830;6.524;2023-06-22T18:58:27;19.70;99.90
21318;DHT22;10818;50.830;6.524;2023-06-22T19:03:31;19.80;99.90
21318;DHT22;10818;50.830;6.524;2023-06-22T19:13:51;19.60;99.90
21318;DHT22;10818;50.830;6.524;2023-06-22T19:18:53;19.50;99.90
21318;DHT22;10818;50.830;6.524;2023-06-22T19:23:55;19.60;99.90
21318;DHT22;10818;50.830;6.524;2023-06-22T19:28:56;19.50;99.90
21318;DHT22;10818;50.830;6.524;2023-06-22T19:34:03;19.30;99.90
21318;DHT22;10818;50.830;6.524;2023-06-22T19:39:06;19.30;99.90
21318;DHT22;10818;50.830;6.524;2023-06-22T19:44:07;18.80;99.90
21318;DHT22;10818;50.830;6.524;2023-06-22T19:49:09;18.60;99.90
21318;DHT22;10818;50.830;6.524;2023-06-22T19:54:09;18.70;99.90
21318;DHT22;10818;50.830;6.524;2023-06-22T19:59:12;18.70;99.90
21318;DHT22;10818;50.830;6.524;2023-06-22T20:04:13;18.80;99.90
21318;DHT22;10818;50.830;6.524;2023-06-22T20:09:14;18.80;99.90
21318;DHT22;10818;50.830;6.524;2023-06-22T20:14:14;18.90;99.90
21318;DHT22;10818;50.830;6.524;2023-06-22T20:19:19;18.90;99.90
21318;DHT22;10818;50.830;6.524;2023-06-22T20:24:21;19.00;99.90
21318;DHT22;10818;50.830;6.524;2023-06-22T20:29:28;19.00;99.90
21318;DHT22;10818;50.830;6.524;2023-06-22T20:34:32;19.10;99.90
21318;DHT22;10818;50.830;6.524;2023-06-22T20:39:33;19.20;99.90
21318;DHT22;10818;50.830;6.524;2023-06-22T20:44:34;19.30;99.90
21318;DHT22;10818;50.830;6.524;2023-06-22T20:49:34;19.20;99.90
21318;DHT22;10818;50.830;6.524;2023-06-22T20:54:35;19.40;99.90
21318;DHT22;10818;50.830;6.524;2023-06-22T20:59:36;19.40;99.90
21318;DHT22;10818;50.830;6.524;2023-06-22T21:04:36;19.40;99.90
21318;DHT22;10818;50.830;6.524;2023-06-22T21:09:37;19.40;99.90
21318;DHT22;10818;50.830;6.524;2023-06-22T21:14:37;19.40;99.90
21318;DHT22;10818;50.830;6.524;2023-06-22T21:19:38;19.50;99.90
21318;DHT22;10818;50.830;6.524;2023-06-22T21:24:38;19.40;99.90
21318;DHT22;10818;50.830;6.524;2023-06-22T21:29:38;19.40;99.90
21318;DHT22;10818;50.830;6.524;2023-06-22T21:34:39;19.50;99.90
21318;DHT22;10818;50.830;6.524;2023-06-22T21:39:39;19.50;99.90
21318;DHT22;10818;50.830;6.524;2023-06-22T21:44:40;19.40;99.90
21318;DHT22;10818;50.830;6.524;2023-06-22T21:49:40;19.40;99.90
21318;DHT22;10818;50.830;6.524;2023-06-22T21:54:41;19.30;99.90
21318;DHT22;10818;50.830;6.524;2023-06-22T21:59:41;19.30;99.90
21318;DHT22;10818;50.830;6.524;2023-06-22T22:04:42;19.30;99.90
21318;DHT22;10818;50.830;6.524;2023-06-22T22:09:42;19.30;99.90
21318;DHT22;10818;50.830;6.524;2023-06-22T22:14:43;19.20;99.90
21318;DHT22;10818;50.830;6.524;2023-06-22T22:19:43;19.40;99.90
21318;DHT22;10818;50.830;6.524;2023-06-22T22:24:43;19.30;99.90
21318;DHT22;10818;50.830;6.524;2023-06-22T22:29:44;19.30;99.90
21318;DHT22;10818;50.830;6.524;2023-06-22T22:34:45;19.30;99.90
21318;DHT22;10818;50.830;6.524;2023-06-22T22:39:45;19.30;99.90
21318;DHT22;10818;50.830;6.524;2023-06-22T22:44:45;19.20;99.90
21318;DHT22;10818;50.830;6.524;2023-06-22T22:49:46;19.30;99.90
21318;DHT22;10818;50.830;6.524;2023-06-22T22:54:46;19.30;99.90
21318;DHT22;10818;50.830;6.524;2023-06-22T22:59:47;19.30;99.90
21318;DHT22;10818;50.830;6.524;2023-06-22T23:04:54;19.30;99.90
21318;DHT22;10818;50.830;6.524;2023-06-22T23:09:55;19.20;99.90
21318;DHT22;10818;50.830;6.524;2023-06-22T23:14:55;19.00;99.90
21318;DHT22;10818;50.830;6.524;2023-06-22T23:19:56;19.00;99.90
21318;DHT22;10818;50.830;6.524;2023-06-22T23:24:56;19.10;99.90
21318;DHT22;10818;50.830;6.524;2023-06-22T23:29:57;19.20;99.90
21318;DHT22;10818;50.830;6.524;2023-06-22T23:34:58;19.00;99.90
21318;DHT22;10818;50.830;6.524;2023-06-22T23:39:59;19.20;99.90
21318;DHT22;10818;50.830;6.524;2023-06-22T23:44:59;19.40;99.90
21318;DHT22;10818;50.830;6.524;2023-06-22T23:50:00;19.30;99.90
21318;DHT22;10818;50.830;6.524;2023-06-22T23:55:00;19.30;99.90
